createdAt,value
2019-05-05T00:01:30.029Z,45.08
2019-05-05T00:03:54.885Z,45.08
2019-05-05T00:06:15.833Z,45.11
2019-05-05T00:08:37.396Z,45.10
2019-05-05T00:10:59.279Z,45.08
2019-05-05T00:13:20.648Z,45.10
2019-05-05T00:15:42.555Z,45.07
2019-05-05T00:18:05.410Z,45.05
2019-05-05T00:20:27.260Z,45.11
2019-05-05T00:22:49.003Z,45.07
2019-05-05T00:25:11.182Z,45.07
2019-05-05T00:27:34.581Z,45.06
2019-05-05T00:29:55.397Z,45.05
2019-05-05T00:32:17.118Z,45.06
2019-05-05T00:34:39.375Z,45.06
2019-05-05T00:37:01.461Z,45.06
2019-05-05T00:39:22.715Z,45.07
2019-05-05T00:41:44.901Z,45.07
2019-05-05T00:44:06.299Z,45.04
2019-05-05T00:46:28.089Z,45.06
2019-05-05T00:48:49.340Z,45.08
2019-05-05T00:51:10.922Z,45.06
2019-05-05T00:53:34.308Z,45.08
2019-05-05T00:55:55.361Z,45.10
2019-05-05T00:58:17.383Z,45.11
2019-05-05T01:00:39.311Z,45.12
2019-05-05T01:03:01.036Z,45.08
2019-05-05T01:05:25.209Z,45.09
2019-05-05T01:07:46.660Z,45.10
2019-05-05T01:10:08.300Z,45.10
2019-05-05T01:12:29.616Z,45.10
2019-05-05T01:14:51.529Z,45.08
2019-05-05T01:17:14.750Z,45.07
2019-05-05T01:19:37.145Z,45.09
2019-05-05T01:21:58.821Z,45.07
2019-05-05T01:24:20.926Z,45.07
2019-05-05T01:26:44.565Z,45.06
2019-05-05T01:29:06.489Z,45.04
2019-05-05T01:31:27.827Z,45.03
2019-05-05T01:33:49.746Z,45.03
2019-05-05T01:36:11.321Z,45.05
2019-05-05T01:38:34.223Z,45.04
2019-05-05T01:40:56.252Z,45.04
2019-05-05T01:43:18.530Z,45.08
2019-05-05T01:45:40.634Z,45.06
2019-05-05T01:48:04.772Z,45.07
2019-05-05T01:50:25.978Z,45.07
2019-05-05T01:52:47.470Z,45.08
2019-05-05T01:55:09.287Z,45.10
2019-05-05T01:57:31.258Z,45.13
2019-05-05T01:59:55.237Z,45.12
2019-05-05T02:02:16.913Z,45.12
2019-05-05T02:04:38.449Z,45.14
2019-05-05T02:07:01.057Z,45.10
2019-05-05T02:09:24.933Z,45.14
2019-05-05T02:11:46.598Z,45.16
2019-05-05T02:14:08.549Z,45.16
2019-05-05T02:16:30.310Z,45.14
2019-05-05T02:18:51.986Z,45.16
2019-05-05T02:21:14.246Z,45.15
2019-05-05T02:23:36.036Z,45.13
2019-05-05T02:25:57.903Z,45.13
2019-05-05T02:28:20.260Z,45.14
2019-05-05T02:30:42.296Z,45.10
2019-05-05T02:33:06.318Z,45.12
2019-05-05T02:35:28.861Z,45.11
2019-05-05T02:37:50.589Z,45.13
2019-05-05T02:40:12.044Z,45.11
2019-05-05T02:42:35.429Z,45.12
2019-05-05T02:44:56.135Z,45.13
2019-05-05T02:47:17.530Z,45.12
2019-05-05T02:49:39.248Z,45.14
2019-05-05T02:52:00.713Z,45.10
2019-05-05T02:54:24.723Z,45.11
2019-05-05T02:56:46.026Z,45.13
2019-05-05T02:59:08.043Z,45.16
2019-05-05T03:01:30.036Z,45.12
2019-05-05T03:03:51.672Z,45.12
2019-05-05T03:06:14.465Z,45.14
2019-05-05T03:08:36.612Z,45.13
2019-05-05T03:10:58.170Z,45.13
2019-05-05T03:13:20.127Z,45.10
2019-05-05T03:15:41.467Z,45.12
2019-05-05T03:18:04.135Z,45.13
2019-05-05T03:20:25.868Z,45.12
2019-05-05T03:22:47.604Z,45.09
2019-05-05T03:25:09.251Z,45.07
2019-05-05T03:27:30.981Z,45.06
2019-05-05T03:29:53.659Z,45.07
2019-05-05T03:32:16.344Z,45.07
2019-05-05T03:34:38.381Z,45.06
2019-05-05T03:36:59.852Z,45.04
2019-05-05T03:39:23.575Z,45.04
2019-05-05T03:41:45.464Z,45.02
2019-05-05T03:44:06.843Z,45.02
2019-05-05T03:46:28.727Z,45.02
2019-05-05T03:48:50.752Z,45.02
2019-05-05T03:51:20.492Z,45.00
2019-05-05T03:53:35.277Z,45.00
2019-05-05T03:55:56.887Z,44.99
2019-05-05T03:58:19.270Z,45.01
2019-05-05T04:00:40.624Z,44.98
2019-05-05T04:03:04.278Z,45.00
2019-05-05T04:05:26.340Z,45.00
2019-05-05T04:07:47.703Z,44.99
2019-05-05T04:10:09.416Z,44.97
2019-05-05T04:12:31.311Z,44.96
2019-05-05T04:14:54.567Z,44.99
2019-05-05T04:17:16.253Z,44.97
2019-05-05T04:19:38.162Z,44.98
2019-05-05T04:21:59.360Z,44.90
2019-05-05T04:24:21.539Z,44.92
2019-05-05T04:26:44.043Z,44.88
2019-05-05T04:29:06.019Z,44.87
2019-05-05T04:31:27.355Z,44.79
2019-05-05T04:33:49.170Z,44.77
2019-05-05T04:36:10.465Z,44.81
2019-05-05T04:38:32.343Z,44.75
2019-05-05T04:40:54.441Z,44.71
2019-05-05T04:43:16.226Z,44.73
2019-05-05T04:45:38.372Z,44.70
2019-05-05T04:48:00.528Z,44.67
2019-05-05T04:50:23.882Z,44.65
2019-05-05T04:52:45.677Z,44.64
2019-05-05T04:55:07.182Z,44.64
2019-05-05T04:57:29.333Z,44.64
2019-05-05T04:59:50.597Z,44.64
2019-05-05T05:02:14.412Z,44.63
2019-05-05T05:04:36.335Z,44.64
2019-05-05T05:06:58.123Z,44.62
2019-05-05T05:09:20.344Z,44.61
2019-05-05T05:11:44.182Z,44.60
2019-05-05T05:14:04.576Z,44.59
2019-05-05T05:16:26.778Z,44.59
2019-05-05T05:18:48.703Z,44.58
2019-05-05T05:21:10.219Z,44.58
2019-05-05T05:23:34.096Z,44.58
2019-05-05T05:25:55.875Z,44.58
2019-05-05T05:28:16.729Z,44.60
2019-05-05T05:30:39.055Z,44.57
2019-05-05T05:33:01.207Z,44.58
2019-05-05T05:35:24.383Z,44.56
2019-05-05T05:37:46.736Z,44.57
2019-05-05T05:40:08.320Z,44.60
2019-05-05T05:42:30.100Z,44.58
2019-05-05T05:44:53.497Z,44.58
2019-05-05T05:47:15.139Z,44.63
2019-05-05T05:49:36.714Z,44.64
2019-05-05T05:52:12.086Z,44.64
2019-05-05T05:54:23.528Z,44.61
2019-05-05T05:56:45.991Z,44.61
2019-05-05T05:59:07.662Z,44.58
2019-05-05T06:01:29.644Z,44.54
2019-05-05T06:03:51.284Z,44.56
2019-05-05T06:06:13.829Z,44.48
2019-05-05T06:08:35.790Z,44.46
2019-05-05T06:10:57.920Z,44.45
2019-05-05T06:13:19.492Z,44.41
2019-05-05T06:15:40.422Z,44.39
2019-05-05T06:18:04.631Z,44.51
2019-05-05T06:20:27.278Z,44.52
2019-05-05T06:22:49.058Z,42.50
2019-05-05T06:25:10.715Z,38.26
2019-05-05T06:27:34.223Z,37.48
2019-05-05T06:29:56.085Z,37.26
2019-05-05T06:32:17.649Z,37.71
2019-05-05T06:34:39.244Z,37.77
2019-05-05T06:37:01.704Z,38.00
2019-05-05T06:39:24.175Z,38.30
2019-05-05T06:41:45.903Z,38.80
2019-05-05T06:44:08.062Z,38.24
2019-05-05T06:46:29.494Z,38.27
2019-05-05T06:48:53.738Z,38.17
2019-05-05T06:51:14.645Z,38.47
2019-05-05T06:53:36.544Z,38.58
2019-05-05T06:55:57.847Z,38.75
2019-05-05T06:58:19.669Z,38.71
2019-05-05T07:00:41.442Z,38.73
2019-05-05T07:03:07.611Z,39.01
2019-05-05T07:05:26.273Z,39.24
2019-05-05T07:07:48.012Z,39.51
2019-05-05T07:10:10.551Z,39.83
2019-05-05T07:12:32.133Z,40.04
2019-05-05T07:14:54.467Z,40.23
2019-05-05T07:17:16.028Z,40.38
2019-05-05T07:19:37.090Z,40.15
2019-05-05T07:21:58.876Z,40.35
2019-05-05T07:24:20.651Z,40.61
2019-05-05T07:26:44.534Z,41.14
2019-05-05T07:29:06.656Z,41.25
2019-05-05T07:31:28.448Z,41.36
2019-05-05T07:33:50.215Z,41.35
2019-05-05T07:36:14.426Z,41.57
2019-05-05T07:38:34.816Z,42.13
2019-05-05T07:40:56.672Z,43.03
2019-05-05T07:43:18.611Z,43.26
2019-05-05T07:45:40.268Z,43.99
2019-05-05T07:48:01.895Z,43.42
2019-05-05T07:50:29.542Z,43.94
2019-05-05T07:52:47.289Z,43.32
2019-05-05T07:55:09.331Z,43.28
2019-05-05T07:57:31.346Z,43.25
2019-05-05T07:59:54.092Z,43.47
2019-05-05T08:02:15.626Z,43.28
2019-05-05T08:04:37.287Z,43.30
2019-05-05T08:06:58.966Z,43.24
2019-05-05T08:09:22.655Z,43.65
2019-05-05T08:11:43.824Z,42.80
2019-05-05T08:14:05.911Z,42.62
2019-05-05T08:16:27.224Z,42.60
2019-05-05T08:18:48.986Z,42.66
2019-05-05T08:21:10.679Z,42.80
2019-05-05T08:23:35.251Z,42.97
2019-05-05T08:25:56.172Z,43.88
2019-05-05T08:28:17.630Z,42.92
2019-05-05T08:30:39.193Z,42.35
2019-05-05T08:33:01.244Z,42.16
2019-05-05T08:35:23.770Z,42.57
2019-05-05T08:37:45.267Z,42.84
2019-05-05T08:40:06.801Z,43.61
2019-05-05T08:42:28.524Z,43.15
2019-05-05T08:44:50.449Z,42.74
2019-05-05T08:47:13.893Z,42.67
2019-05-05T08:49:36.585Z,42.79
2019-05-05T08:51:58.126Z,42.55
2019-05-05T08:54:19.847Z,43.16
2019-05-05T08:56:41.602Z,42.85
2019-05-05T08:59:03.773Z,42.15
2019-05-05T09:01:25.653Z,41.70
2019-05-05T09:03:47.196Z,42.10
2019-05-05T09:06:09.909Z,43.27
2019-05-05T09:08:31.392Z,40.47
2019-05-05T09:10:55.021Z,41.74
2019-05-05T09:13:15.942Z,41.84
2019-05-05T09:15:37.896Z,42.11
2019-05-05T09:17:59.926Z,41.82
2019-05-05T09:20:24.047Z,41.71
2019-05-05T09:22:44.691Z,41.85
2019-05-05T09:25:06.823Z,41.80
2019-05-05T09:27:28.957Z,41.72
2019-05-05T09:29:51.585Z,41.84
2019-05-05T09:32:14.048Z,41.73
2019-05-05T09:34:36.149Z,41.50
2019-05-05T09:36:58.028Z,41.38
2019-05-05T09:39:20.414Z,41.43
2019-05-05T09:41:44.466Z,41.48
2019-05-05T09:44:05.831Z,41.50
2019-05-05T09:46:27.017Z,41.34
2019-05-05T09:48:48.999Z,41.30
2019-05-05T09:51:10.236Z,41.36
2019-05-05T09:53:34.252Z,41.36
2019-05-05T09:55:54.979Z,41.47
2019-05-05T09:58:17.758Z,41.41
2019-05-05T10:00:40.614Z,41.48
2019-05-05T10:03:03.806Z,41.63
2019-05-05T10:05:25.160Z,41.66
2019-05-05T10:07:47.242Z,41.35
2019-05-05T10:10:08.713Z,41.46
2019-05-05T10:12:30.359Z,41.49
2019-05-05T10:14:54.054Z,41.52
2019-05-05T10:17:14.766Z,41.63
2019-05-05T10:19:44.018Z,41.67
2019-05-05T10:22:05.663Z,41.71
2019-05-05T10:24:30.646Z,41.75
2019-05-05T10:26:49.790Z,41.77
2019-05-05T10:29:11.189Z,41.79
2019-05-05T10:31:34.593Z,41.79
2019-05-05T10:33:56.998Z,41.84
2019-05-05T10:36:18.878Z,41.91
2019-05-05T10:38:40.611Z,41.99
2019-05-05T10:41:01.630Z,42.04
2019-05-05T10:43:23.892Z,42.06
2019-05-05T10:45:45.739Z,42.09
2019-05-05T10:48:07.437Z,42.13
2019-05-05T10:50:29.563Z,42.14
2019-05-05T10:52:51.065Z,42.20
2019-05-05T10:55:14.548Z,42.09
2019-05-05T10:57:35.806Z,42.13
2019-05-05T11:00:09.385Z,42.03
2019-05-05T11:02:24.200Z,41.84
2019-05-05T11:04:45.618Z,41.42
2019-05-05T11:07:07.496Z,41.80
2019-05-05T11:09:29.773Z,41.69
2019-05-05T11:11:51.465Z,41.79
2019-05-05T11:14:14.239Z,41.77
2019-05-05T11:16:39.046Z,41.79
2019-05-05T11:18:59.965Z,41.48
2019-05-05T11:21:23.689Z,37.97
2019-05-05T11:23:45.639Z,38.98
2019-05-05T11:26:08.305Z,40.20
2019-05-05T11:28:29.881Z,40.52
2019-05-05T11:30:53.725Z,40.74
2019-05-05T11:33:15.488Z,40.78
2019-05-05T11:35:36.815Z,40.95
2019-05-05T11:37:58.693Z,41.16
2019-05-05T11:40:20.401Z,41.20
2019-05-05T11:42:42.483Z,41.21
2019-05-05T11:45:04.281Z,41.28
2019-05-05T11:47:26.270Z,41.32
2019-05-05T11:49:48.207Z,41.39
2019-05-05T11:52:10.520Z,41.48
2019-05-05T11:54:32.488Z,41.40
2019-05-05T11:57:33.612Z,41.50
2019-05-05T11:59:55.994Z,41.62
2019-05-05T12:02:17.688Z,41.72
2019-05-05T12:04:39.779Z,41.78
2019-05-05T12:07:04.097Z,41.66
2019-05-05T12:09:26.031Z,41.81
2019-05-05T12:11:47.208Z,41.91
2019-05-05T12:14:09.309Z,42.08
2019-05-05T12:16:30.786Z,42.28
2019-05-05T12:18:53.932Z,42.43
2019-05-05T12:21:15.365Z,42.49
2019-05-05T12:23:36.961Z,42.63
2019-05-05T12:25:59.162Z,43.02
2019-05-05T12:28:21.627Z,42.86
2019-05-05T12:30:44.427Z,42.89
2019-05-05T12:33:06.169Z,43.02
2019-05-05T12:35:27.818Z,42.92
2019-05-05T12:37:49.739Z,42.83
2019-05-05T12:40:11.899Z,42.88
2019-05-05T12:42:33.525Z,42.86
2019-05-05T12:44:55.069Z,42.98
2019-05-05T12:47:19.831Z,42.86
2019-05-05T12:49:41.546Z,42.63
2019-05-05T12:52:04.603Z,42.51
2019-05-05T12:54:26.394Z,40.87
2019-05-05T12:56:47.624Z,38.46
2019-05-05T12:59:09.341Z,36.78
2019-05-05T13:01:33.589Z,36.48
2019-05-05T13:03:54.976Z,37.14
2019-05-05T13:06:17.100Z,38.80
2019-05-05T13:08:38.744Z,39.48
2019-05-05T13:11:00.562Z,39.52
2019-05-05T13:13:22.851Z,37.71
2019-05-05T13:15:44.768Z,38.50
2019-05-05T13:18:06.191Z,39.83
2019-05-05T13:20:28.306Z,40.20
2019-05-05T13:22:49.724Z,40.36
2019-05-05T13:25:13.857Z,40.41
2019-05-05T13:27:35.516Z,40.51
2019-05-05T13:29:57.792Z,40.53
2019-05-05T13:32:19.317Z,40.61
2019-05-05T13:34:41.198Z,40.70
2019-05-05T13:37:03.611Z,40.65
2019-05-05T13:39:26.098Z,40.79
2019-05-05T13:41:47.616Z,40.86
2019-05-05T13:44:09.940Z,40.88
2019-05-05T13:46:33.807Z,40.93
2019-05-05T13:48:54.811Z,40.97
2019-05-05T13:51:16.755Z,41.03
2019-05-05T13:53:38.680Z,41.05
2019-05-05T13:56:11.020Z,41.14
2019-05-05T13:58:24.925Z,41.19
2019-05-05T14:00:46.904Z,41.22
2019-05-05T14:03:09.096Z,41.25
2019-05-05T14:05:31.651Z,41.24
2019-05-05T14:07:53.741Z,41.30
2019-05-05T14:10:15.200Z,41.31
2019-05-05T14:12:37.158Z,41.30
2019-05-05T14:14:58.800Z,41.28
2019-05-05T14:17:20.477Z,41.26
2019-05-05T14:19:44.444Z,41.27
2019-05-05T14:22:05.465Z,41.21
2019-05-05T14:24:27.376Z,41.19
2019-05-05T14:26:48.311Z,41.14
2019-05-05T14:29:10.856Z,41.05
2019-05-05T14:31:33.794Z,40.97
2019-05-05T14:33:55.375Z,40.88
2019-05-05T14:36:17.251Z,40.89
2019-05-05T14:38:38.520Z,40.88
2019-05-05T14:40:59.708Z,40.90
2019-05-05T14:43:21.296Z,40.91
2019-05-05T14:45:44.384Z,40.93
2019-05-05T14:48:06.248Z,40.91
2019-05-05T14:50:27.363Z,40.93
2019-05-05T14:52:49.212Z,40.95
2019-05-05T14:55:10.881Z,40.97
2019-05-05T14:57:33.649Z,41.00
2019-05-05T14:59:56.028Z,41.01
2019-05-05T15:02:17.791Z,41.02
2019-05-05T15:04:39.685Z,41.09
2019-05-05T15:07:03.620Z,41.07
2019-05-05T15:09:25.376Z,41.12
2019-05-05T15:11:46.208Z,41.16
2019-05-05T15:14:07.804Z,41.19
2019-05-05T15:16:29.175Z,41.22
2019-05-05T15:18:50.857Z,41.25
2019-05-05T15:21:12.620Z,41.30
2019-05-05T15:23:34.468Z,41.32
2019-05-05T15:25:56.165Z,41.42
2019-05-05T15:28:18.408Z,41.47
2019-05-05T15:30:40.340Z,41.50
2019-05-05T15:33:04.506Z,41.55
2019-05-05T15:35:26.045Z,41.56
2019-05-05T15:37:47.702Z,41.60
2019-05-05T15:40:09.328Z,41.62
2019-05-05T15:42:30.906Z,41.67
2019-05-05T15:44:54.351Z,41.70
2019-05-05T15:47:16.794Z,41.71
2019-05-05T15:49:38.814Z,41.71
2019-05-05T15:52:00.755Z,41.64
2019-05-05T15:54:23.597Z,41.58
2019-05-05T15:56:45.285Z,41.52
2019-05-05T15:59:12.031Z,41.45
2019-05-05T16:01:36.659Z,41.43
2019-05-05T16:04:03.610Z,41.34
2019-05-05T16:06:24.205Z,41.31
2019-05-05T16:08:46.233Z,41.28
2019-05-05T16:11:09.699Z,41.24
2019-05-05T16:14:01.194Z,41.19
2019-05-05T16:16:02.565Z,41.18
2019-05-05T16:19:05.655Z,41.16
2019-05-05T16:21:03.649Z,41.16
2019-05-05T16:23:29.494Z,41.14
2019-05-05T16:25:55.875Z,41.15
2019-05-05T16:28:16.469Z,41.13
2019-05-05T16:30:38.089Z,41.13
2019-05-05T16:32:59.712Z,41.16
2019-05-05T16:35:23.734Z,41.15
2019-05-05T16:37:47.156Z,41.16
2019-05-05T16:40:17.884Z,41.17
2019-05-05T16:43:33.762Z,41.21
2019-05-05T16:45:09.583Z,41.24
2019-05-05T16:47:33.613Z,41.23
2019-05-05T16:49:56.757Z,41.30
2019-05-05T16:52:18.995Z,41.33
2019-05-05T16:54:40.698Z,41.36
2019-05-05T16:57:03.984Z,41.42
2019-05-05T16:59:28.461Z,41.46
2019-05-05T17:01:50.400Z,41.48
2019-05-05T17:04:19.435Z,41.48
2019-05-05T17:06:45.798Z,41.48
2019-05-05T17:09:07.640Z,41.55
2019-05-05T17:11:38.807Z,41.57
2019-05-05T17:14:06.454Z,41.61
2019-05-05T17:16:28.001Z,41.63
2019-05-05T17:18:51.123Z,41.64
2019-05-05T17:21:16.550Z,41.67
2019-05-05T17:23:43.349Z,41.68
2019-05-05T17:26:06.116Z,41.62
2019-05-05T17:28:29.137Z,41.56
2019-05-05T17:30:56.334Z,41.48
2019-05-05T17:33:25.522Z,41.40
2019-05-05T17:35:54.067Z,41.35
2019-05-05T17:38:16.046Z,41.28
2019-05-05T17:40:43.707Z,41.25
2019-05-05T17:43:22.512Z,41.19
2019-05-05T17:45:37.087Z,41.12
2019-05-05T17:47:59.104Z,41.13
2019-05-05T17:50:21.442Z,41.10
2019-05-05T17:52:44.858Z,41.10
2019-05-05T17:55:10.014Z,41.10
2019-05-05T17:57:37.928Z,41.10
2019-05-05T18:00:12.115Z,41.11
2019-05-05T18:02:40.162Z,41.08
2019-05-05T18:05:07.107Z,41.08
2019-05-05T18:07:40.503Z,41.11
2019-05-05T18:10:05.819Z,41.13
2019-05-05T18:12:33.763Z,41.17
2019-05-05T18:14:59.752Z,41.18
2019-05-05T18:17:24.321Z,41.20
2019-05-05T18:19:53.513Z,41.21
2019-05-05T18:22:14.636Z,41.24
2019-05-05T18:24:55.253Z,41.27
2019-05-05T18:27:14.026Z,41.30
2019-05-05T18:29:39.839Z,41.34
2019-05-05T18:31:58.290Z,41.36
2019-05-05T18:34:28.716Z,41.41
2019-05-05T18:37:21.715Z,41.45
2019-05-05T18:39:16.407Z,41.46
2019-05-05T18:41:40.842Z,41.51
2019-05-05T18:44:06.162Z,39.21
2019-05-05T18:46:30.697Z,40.25
2019-05-05T18:48:55.483Z,40.32
2019-05-05T18:51:17.387Z,41.04
2019-05-05T18:53:39.041Z,41.27
2019-05-05T18:56:00.772Z,41.33
2019-05-05T18:58:28.176Z,41.41
2019-05-05T19:00:45.465Z,41.54
2019-05-05T19:03:17.786Z,42.18
2019-05-05T19:05:30.929Z,42.75
2019-05-05T19:07:55.802Z,42.90
2019-05-05T19:10:15.643Z,42.84
2019-05-05T19:12:38.197Z,42.88
2019-05-05T19:14:59.912Z,43.19
2019-05-05T19:17:23.571Z,43.24
2019-05-05T19:19:47.071Z,43.16
2019-05-05T19:22:09.286Z,43.10
2019-05-05T19:24:35.135Z,43.05
2019-05-05T19:26:56.093Z,42.96
2019-05-05T19:29:17.604Z,42.84
2019-05-05T19:31:41.070Z,42.83
2019-05-05T19:34:04.000Z,42.77
2019-05-05T19:36:27.447Z,43.14
2019-05-05T19:38:49.120Z,43.45
2019-05-05T19:41:10.988Z,43.92
2019-05-05T19:43:33.991Z,43.78
2019-05-05T19:45:55.759Z,44.14
2019-05-05T19:48:17.973Z,44.24
2019-05-05T19:50:39.722Z,44.23
2019-05-05T19:53:01.535Z,44.31
2019-05-05T19:55:23.206Z,44.20
2019-05-05T19:57:44.701Z,44.19
2019-05-05T20:00:06.892Z,44.21
2019-05-05T20:02:30.128Z,44.18
2019-05-05T20:04:55.872Z,44.20
2019-05-05T20:07:17.676Z,44.17
2019-05-05T20:09:39.518Z,44.19
2019-05-05T20:12:00.836Z,44.13
2019-05-05T20:14:22.220Z,44.11
2019-05-05T20:16:44.206Z,44.18
2019-05-05T20:19:15.942Z,44.03
2019-05-05T20:21:57.972Z,43.90
2019-05-05T20:24:23.908Z,44.05
2019-05-05T20:26:50.662Z,43.92
2019-05-05T20:29:16.560Z,43.75
2019-05-05T20:31:35.416Z,43.69
2019-05-05T20:33:56.678Z,43.66
2019-05-05T20:36:18.500Z,43.62
2019-05-05T20:38:39.925Z,43.57
2019-05-05T20:41:04.233Z,43.53
2019-05-05T20:43:29.001Z,43.50
2019-05-05T20:45:48.568Z,43.46
2019-05-05T20:48:09.611Z,43.41
2019-05-05T20:50:31.240Z,43.16
2019-05-05T20:52:53.553Z,42.97
2019-05-05T20:55:16.003Z,42.90
2019-05-05T20:57:37.638Z,42.92
2019-05-05T21:00:03.718Z,43.04
2019-05-05T21:02:25.809Z,43.08
2019-05-05T21:04:47.231Z,43.01
2019-05-05T21:07:09.756Z,42.92
2019-05-05T21:09:30.917Z,42.88
2019-05-05T21:11:54.838Z,42.76
2019-05-05T21:14:20.452Z,42.69
2019-05-05T21:16:39.523Z,42.64
2019-05-05T21:19:00.884Z,42.52
2019-05-05T21:21:24.815Z,42.46
2019-05-05T21:23:46.135Z,42.40
2019-05-05T21:26:07.723Z,42.40
2019-05-05T21:28:28.938Z,42.28
2019-05-05T21:30:50.681Z,42.26
2019-05-05T21:33:12.841Z,42.24
2019-05-05T21:35:35.113Z,42.17
2019-05-05T21:37:57.049Z,42.15
2019-05-05T21:40:18.873Z,42.12
2019-05-05T21:42:40.598Z,42.07
2019-05-05T21:45:04.509Z,42.07
2019-05-05T21:47:25.603Z,42.07
2019-05-05T21:49:47.649Z,42.04
2019-05-05T21:52:09.548Z,42.01
2019-05-05T21:54:31.191Z,41.99
2019-05-05T21:56:53.448Z,41.98
2019-05-05T21:59:15.322Z,41.96
2019-05-05T22:01:39.511Z,42.02
2019-05-05T22:04:00.068Z,41.94
2019-05-05T22:06:21.476Z,41.98
2019-05-05T22:08:43.515Z,41.58
2019-05-05T22:11:05.529Z,41.65
2019-05-05T22:13:27.431Z,41.85
2019-05-05T22:15:48.978Z,41.89
2019-05-05T22:18:10.585Z,41.91
2019-05-05T22:20:33.944Z,41.92
2019-05-05T22:22:55.315Z,41.96
2019-05-05T22:25:16.848Z,42.03
2019-05-05T22:27:38.711Z,42.07
2019-05-05T22:30:09.641Z,42.07
2019-05-05T22:32:24.947Z,42.10
2019-05-05T22:34:46.928Z,42.06
2019-05-05T22:37:09.696Z,42.07
2019-05-05T22:39:33.668Z,42.07
2019-05-05T22:41:54.580Z,42.11
2019-05-05T22:44:16.396Z,42.19
2019-05-05T22:46:38.335Z,42.18
2019-05-05T22:49:00.420Z,42.18
2019-05-05T22:51:22.513Z,42.13
2019-05-05T22:53:44.264Z,42.10
2019-05-05T22:56:06.024Z,42.06
2019-05-05T22:58:27.651Z,41.98
2019-05-05T23:00:49.548Z,41.90
2019-05-05T23:03:10.840Z,41.85
2019-05-05T23:05:34.554Z,41.81
2019-05-05T23:07:56.230Z,41.77
2019-05-05T23:10:17.754Z,41.74
2019-05-05T23:12:39.692Z,41.71
2019-05-05T23:15:01.387Z,41.70
2019-05-05T23:17:26.254Z,41.66
2019-05-05T23:19:46.146Z,41.65
2019-05-05T23:22:08.304Z,41.64
2019-05-05T23:24:29.961Z,41.64
2019-05-05T23:26:51.375Z,41.64
2019-05-05T23:29:13.123Z,41.63
2019-05-05T23:31:34.844Z,41.63
2019-05-05T23:33:56.329Z,41.65
2019-05-05T23:36:18.720Z,41.63
2019-05-05T23:38:40.864Z,41.64
2019-05-05T23:41:03.872Z,41.63
2019-05-05T23:43:25.572Z,41.63
2019-05-05T23:45:47.552Z,41.65
2019-05-05T23:48:09.200Z,41.66
2019-05-05T23:50:33.704Z,41.65
2019-05-05T23:52:57.826Z,41.67
2019-05-05T23:55:19.892Z,41.71
2019-05-05T23:57:41.033Z,41.71
